Time;durP1;ratioP1;P1;durP2;ratioP2;P2;SDS_P1;SDS_P2;PMS_P1;PMS_P2;Temp;Humidity;BMP_temperature;BMP_pressure;BME280_temperature;BME280_humidity;BME280_pressure;Samples;Min_cycle;Max_cycle;Signal;HPM_P1;HPM_P2
2023/08/21 00:01:18;;;;;;;10.35;8.40;;;;;;;26.27;51.99;99883.75;5117810;28;20044;-68
2023/08/21 00:03:43;;;;;;;7.97;7.13;;;;;;;26.34;51.76;99881.66;5118108;28;20040;-69
2023/08/21 00:06:09;;;;;;;9.68;7.13;;;;;;;26.32;52.39;99880.25;5117816;28;20240;-69
2023/08/21 00:08:34;;;;;;;10.88;7.82;;;;;;;26.40;52.17;99879.78;5118083;28;20349;-68
2023/08/21 00:10:59;;;;;;;10.30;8.15;;;;;;;26.27;53.02;99881.03;5117420;28;20044;-68
2023/08/21 00:13:25;;;;;;;8.82;7.15;;;;;;;26.17;52.87;99886.41;5117751;28;20027;-69
2023/08/21 00:15:51;;;;;;;9.45;7.20;;;;;;;26.23;52.94;99888.06;5117751;28;20059;-68
2023/08/21 00:18:17;;;;;;;9.80;7.70;;;;;;;26.08;53.10;99890.69;5121685;28;20102;-68
2023/08/21 00:20:42;;;;;;;8.88;7.80;;;;;;;25.90;52.93;99891.06;5121982;28;20226;-68
2023/08/21 00:23:08;;;;;;;8.68;7.72;;;;;;;25.80;53.05;99889.06;5121892;28;20058;-68
2023/08/21 00:25:34;;;;;;;8.18;7.32;;;;;;;25.67;53.21;99890.31;5122113;28;20120;-68
2023/08/21 00:27:59;;;;;;;9.52;7.82;;;;;;;25.55;53.61;99889.63;5121956;28;20038;-68
2023/08/21 00:30:25;;;;;;;8.60;7.70;;;;;;;25.42;54.40;99892.75;5122203;28;20043;-69
2023/08/21 00:32:50;;;;;;;8.60;7.25;;;;;;;25.44;54.64;99888.72;5121999;28;20039;-67
2023/08/21 00:35:15;;;;;;;11.18;7.72;;;;;;;25.54;54.63;99884.47;5122243;28;20039;-68
2023/08/21 00:37:41;;;;;;;9.48;7.78;;;;;;;25.46;54.86;99893.88;5121734;28;20081;-68
2023/08/21 00:40:07;;;;;;;10.50;7.40;;;;;;;25.40;55.31;99889.47;5121730;28;20041;-68
2023/08/21 00:42:33;;;;;;;7.70;6.95;;;;;;;25.40;55.01;99893.00;5121697;28;20043;-68
2023/08/21 00:44:58;;;;;;;8.02;6.82;;;;;;;25.34;55.41;99888.63;5121642;28;20058;-68
2023/08/21 00:47:23;;;;;;;7.70;6.75;;;;;;;25.28;55.63;99888.81;5121625;28;20045;-68
2023/08/21 00:49:49;;;;;;;10.25;8.07;;;;;;;25.18;55.86;99886.00;5122213;28;20040;-69
2023/08/21 00:52:15;;;;;;;7.45;6.70;;;;;;;25.16;56.22;99886.25;5121771;28;20050;-68
2023/08/21 00:54:41;;;;;;;8.02;7.05;;;;;;;25.24;55.73;99893.94;5121581;28;20064;-68
2023/08/21 00:57:07;;;;;;;8.35;7.50;;;;;;;25.19;56.06;99884.91;5121688;28;20059;-67
2023/08/21 00:59:33;;;;;;;11.15;7.13;;;;;;;25.21;55.52;99889.00;5121560;28;20046;-69
2023/08/21 01:01:58;;;;;;;10.27;7.40;;;;;;;25.24;55.76;99887.69;5121222;28;20063;-68
2023/08/21 01:04:24;;;;;;;8.98;6.43;;;;;;;25.26;55.70;99886.38;5121386;28;20325;-68
2023/08/21 01:06:50;;;;;;;8.30;6.97;;;;;;;25.24;55.66;99877.66;5121246;28;20039;-68
2023/08/21 01:09:31;;;;;;;7.75;6.65;;;;;;;25.23;55.80;99888.75;5121465;28;20027;-68
2023/08/21 01:12:30;;;;;;;7.35;6.40;;;;;;;25.34;55.27;99894.03;5121049;28;20102;-68
2023/08/21 01:15:00;;;;;;;8.75;7.28;;;;;;;25.27;55.60;99893.41;5109791;28;20047;-67
2023/08/21 01:17:28;;;;;;;9.10;6.70;;;;;;;25.22;55.99;99892.53;5120608;28;20062;-68
2023/08/21 01:19:55;;;;;;;10.50;6.72;;;;;;;25.12;56.20;99885.94;5120552;28;20090;-68
2023/08/21 01:22:24;;;;;;;9.05;6.47;;;;;;;25.11;55.97;99887.00;5120755;28;20051;-68
2023/08/21 01:24:50;;;;;;;9.80;6.70;;;;;;;25.10;56.11;99893.50;5120949;28;20383;-68
2023/08/21 01:27:15;;;;;;;7.25;6.60;;;;;;;25.09;56.10;99891.03;5120603;28;20473;-68
2023/08/21 01:29:42;;;;;;;8.95;7.32;;;;;;;25.01;56.29;99896.91;5120619;28;20028;-68
2023/08/21 01:32:42;;;;;;;7.38;6.32;;;;;;;24.84;56.82;99894.22;5120771;28;20051;-69
2023/08/21 01:35:10;;;;;;;8.10;6.85;;;;;;;24.97;56.69;99882.16;5067699;28;20082;-68
2023/08/21 01:37:36;;;;;;;8.73;6.78;;;;;;;24.98;56.94;99894.72;5120436;28;20039;-68
2023/08/21 01:40:02;;;;;;;10.02;8.20;;;;;;;24.93;57.17;99892.69;5120621;28;20054;-69
2023/08/21 01:42:27;;;;;;;10.13;7.07;;;;;;;24.93;57.16;99894.59;5120745;28;20058;-68
2023/08/21 01:44:52;;;;;;;12.98;7.05;;;;;;;24.92;56.88;99895.66;5120216;28;20039;-68
2023/08/21 01:47:18;;;;;;;8.13;6.82;;;;;;;24.86;57.09;99896.66;5120082;28;20060;-68
2023/08/21 01:49:44;;;;;;;10.40;7.07;;;;;;;24.86;57.01;99892.06;5120661;28;20043;-69
2023/08/21 01:52:09;;;;;;;8.23;6.65;;;;;;;24.83;57.24;99892.56;5120714;28;20040;-68
2023/08/21 01:54:36;;;;;;;9.77;7.40;;;;;;;24.80;57.16;99902.00;5120637;28;20043;-68
2023/08/21 01:57:01;;;;;;;9.52;7.00;;;;;;;24.74;57.66;99904.91;5120104;28;20054;-69
2023/08/21 01:59:26;;;;;;;11.88;7.15;;;;;;;24.73;57.56;99898.69;5120085;28;20023;-69
2023/08/21 02:01:52;;;;;;;8.45;7.07;;;;;;;24.68;57.47;99895.91;5119957;28;20039;-68
2023/08/21 02:04:17;;;;;;;8.57;7.03;;;;;;;24.66;57.88;99900.75;5120021;28;20047;-68
2023/08/21 02:06:44;;;;;;;8.45;7.32;;;;;;;24.63;57.51;99892.31;5119928;28;20257;-68
2023/08/21 02:09:10;;;;;;;7.85;6.70;;;;;;;24.60;57.69;99887.41;5119756;28;20035;-69
2023/08/21 02:11:35;;;;;;;8.10;6.90;;;;;;;24.58;57.59;99887.66;5119885;28;20036;-68
2023/08/21 02:14:01;;;;;;;9.48;6.97;;;;;;;24.61;57.32;99889.03;5120066;28;20038;-68
2023/08/21 02:16:26;;;;;;;9.48;6.78;;;;;;;24.63;57.42;99889.59;5120227;28;20035;-69
2023/08/21 02:18:52;;;;;;;7.93;6.50;;;;;;;24.68;57.28;99890.47;5120256;28;20233;-69
2023/08/21 02:21:17;;;;;;;7.45;6.60;;;;;;;24.63;57.41;99895.84;5119645;28;20063;-69
2023/08/21 02:23:43;;;;;;;9.43;7.25;;;;;;;24.70;57.46;99891.06;5119833;28;20305;-69
2023/08/21 02:26:08;;;;;;;7.50;6.43;;;;;;;24.76;57.43;99898.19;5119610;28;20043;-68
2023/08/21 02:28:33;;;;;;;9.20;6.38;;;;;;;24.51;58.03;99895.94;5119717;28;20313;-69
2023/08/21 02:30:59;;;;;;;7.60;6.72;;;;;;;24.70;57.30;99891.06;5119641;28;20051;-68
2023/08/21 02:33:24;;;;;;;9.35;7.28;;;;;;;24.75;57.33;99890.31;5119539;28;20202;-68
2023/08/21 02:35:51;;;;;;;7.80;6.65;;;;;;;24.75;56.79;99887.59;5119567;28;20046;-69
2023/08/21 02:38:16;;;;;;;8.85;7.05;;;;;;;24.69;56.90;99886.72;5119324;28;20035;-69
2023/08/21 02:40:42;;;;;;;7.68;6.35;;;;;;;24.68;56.89;99886.97;5118783;28;20055;-68
2023/08/21 02:43:07;;;;;;;7.75;6.88;;;;;;;24.77;56.79;99893.56;5118909;28;20133;-69
2023/08/21 02:45:33;;;;;;;11.43;7.00;;;;;;;24.60;57.25;99893.63;5118989;28;20062;-69
2023/08/21 02:47:58;;;;;;;8.15;6.18;;;;;;;24.62;57.00;99887.97;5119205;28;20114;-69
2023/08/21 02:50:24;;;;;;;8.65;6.22;;;;;;;24.58;57.19;99886.81;5119552;28;20039;-68
2023/08/21 02:52:49;;;;;;;11.63;6.72;;;;;;;24.48;57.68;99898.34;5119597;28;20088;-68
2023/08/21 02:55:15;;;;;;;9.55;7.05;;;;;;;24.54;57.68;99894.63;5119363;28;20055;-69
2023/08/21 02:57:41;;;;;;;7.57;6.40;;;;;;;24.65;57.06;99893.69;5119295;28;20043;-68
2023/08/21 03:00:11;;;;;;;7.88;6.53;;;;;;;24.68;57.17;99892.38;5118948;28;20114;-69
2023/08/21 03:02:37;;;;;;;8.57;6.72;;;;;;;24.65;56.98;99885.56;5118719;28;20334;-69
2023/08/21 03:05:03;;;;;;;8.25;6.93;;;;;;;24.57;57.57;99896.00;5118945;28;20024;-69
2023/08/21 03:07:29;;;;;;;8.43;6.57;;;;;;;24.52;57.75;99892.16;5118476;28;20393;-68
2023/08/21 03:09:54;;;;;;;8.10;6.57;;;;;;;24.43;58.27;99896.38;5118296;28;20031;-69
2023/08/21 03:12:19;;;;;;;6.97;6.00;;;;;;;24.39;58.08;99883.59;5118559;28;20277;-68
2023/08/21 03:14:46;;;;;;;8.18;6.78;;;;;;;24.36;57.94;99886.78;5118824;28;20035;-68
2023/08/21 03:17:11;;;;;;;8.25;6.40;;;;;;;24.32;58.06;99881.06;5118423;28;20048;-68
2023/08/21 03:19:37;;;;;;;9.05;6.68;;;;;;;24.21;58.44;99890.06;5118464;28;20035;-68
2023/08/21 03:22:02;;;;;;;7.55;6.75;;;;;;;24.38;57.78;99890.06;5118761;28;20058;-68
2023/08/21 03:24:28;;;;;;;8.50;6.30;;;;;;;24.40;57.59;99890.63;5118909;28;20046;-69
2023/08/21 03:26:53;;;;;;;8.55;5.90;;;;;;;24.36;57.75;99892.19;5118831;28;20054;-69
2023/08/21 03:29:19;;;;;;;10.07;7.13;;;;;;;24.36;58.22;99897.63;5118559;28;20047;-69
2023/08/21 03:31:48;;;;;;;8.75;6.53;;;;;;;24.15;58.62;99893.75;5118281;28;20309;-68
2023/08/21 03:34:14;;;;;;;10.10;6.82;;;;;;;24.33;58.22;99890.00;5118403;28;20036;-69
2023/08/21 03:36:39;;;;;;;8.32;6.68;;;;;;;24.41;57.55;99894.97;5118119;28;20046;-68
2023/08/21 03:39:07;;;;;;;8.55;6.40;;;;;;;24.54;57.36;99889.22;5118252;28;20036;-69
2023/08/21 03:41:33;;;;;;;7.65;6.70;;;;;;;24.57;57.05;99894.13;5117864;28;20040;-69
2023/08/21 03:43:58;;;;;;;10.07;6.88;;;;;;;24.58;57.23;99892.25;5118091;28;20237;-68
2023/08/21 03:46:24;;;;;;;10.75;6.93;;;;;;;24.57;57.35;99894.13;5118131;28;20040;-69
2023/08/21 03:48:50;;;;;;;9.23;7.35;;;;;;;24.57;56.96;99885.19;5118135;28;20028;-68
2023/08/21 03:51:16;;;;;;;7.95;6.50;;;;;;;24.62;57.25;99882.53;5117417;28;20043;-68
2023/08/21 03:53:41;;;;;;;9.00;5.97;;;;;;;24.62;57.00;99888.78;5118014;28;20039;-68
2023/08/21 03:56:07;;;;;;;7.20;5.95;;;;;;;24.55;57.82;99895.44;5117934;28;20034;-69
2023/08/21 03:58:33;;;;;;;13.35;6.47;;;;;;;24.59;57.61;99893.88;5117886;28;20241;-68
2023/08/21 04:00:58;;;;;;;14.95;7.65;;;;;;;24.60;57.77;99890.91;5117991;28;20043;-68
2023/08/21 04:03:24;;;;;;;11.30;7.13;;;;;;;24.41;58.92;99903.91;5117864;28;20108;-68
2023/08/21 04:05:49;;;;;;;9.05;6.95;;;;;;;24.57;58.00;99896.00;5118250;28;20053;-69
2023/08/21 04:08:15;;;;;;;9.63;6.85;;;;;;;24.62;58.15;99898.78;5118193;28;20028;-69
2023/08/21 04:10:41;;;;;;;9.43;6.72;;;;;;;24.63;57.49;99898.53;5117767;28;20359;-68
2023/08/21 04:13:07;;;;;;;9.20;6.78;;;;;;;24.74;57.62;99908.44;5117686;28;20039;-68
2023/08/21 04:15:35;;;;;;;8.65;6.78;;;;;;;24.73;57.54;99906.78;5118033;28;20221;-68
2023/08/21 04:18:00;;;;;;;12.50;6.63;;;;;;;24.86;57.03;99908.31;5117867;28;20039;-69
2023/08/21 04:20:26;;;;;;;13.25;6.45;;;;;;;24.90;57.07;99914.88;5118378;28;20210;-69
2023/08/21 04:22:51;;;;;;;11.38;6.72;;;;;;;24.88;57.29;99905.34;5118271;28;20050;-69
2023/08/21 04:25:17;;;;;;;8.65;6.85;;;;;;;24.92;57.23;99906.50;5118854;28;20254;-69
2023/08/21 04:27:43;;;;;;;15.82;7.38;;;;;;;25.02;57.21;99904.78;5118009;28;20051;-68
2023/08/21 04:30:09;;;;;;;10.98;6.70;;;;;;;25.06;56.99;99905.91;5118641;28;20032;-70
2023/08/21 04:32:35;;;;;;;10.57;6.78;;;;;;;25.15;56.81;99911.72;5118261;28;20043;-68
2023/08/21 04:35:00;;;;;;;14.20;7.13;;;;;;;25.20;56.72;99908.25;5118573;28;20028;-68
2023/08/21 04:37:26;;;;;;;11.13;7.32;;;;;;;25.22;57.05;99909.63;5118241;28;20070;-69
2023/08/21 04:39:52;;;;;;;9.32;7.28;;;;;;;25.19;56.91;99909.31;5118087;28;20034;-69
2023/08/21 04:42:17;;;;;;;11.68;7.07;;;;;;;25.30;57.05;99913.78;5118754;28;20063;-69
2023/08/21 04:44:43;;;;;;;11.20;7.22;;;;;;;25.19;56.85;99914.72;5118366;28;20036;-69
2023/08/21 04:47:27;;;;;;;9.93;6.53;;;;;;;25.33;56.89;99918.69;5119000;28;20043;-69
2023/08/21 04:49:53;;;;;;;12.57;7.20;;;;;;;25.34;57.14;99917.59;5119032;28;20035;-69
2023/08/21 04:52:20;;;;;;;9.98;6.80;;;;;;;25.40;57.27;99916.59;5118688;28;20337;-69
2023/08/21 04:54:47;;;;;;;15.65;7.32;;;;;;;25.43;57.07;99921.50;5118927;28;20325;-70
2023/08/21 04:57:12;;;;;;;11.48;7.15;;;;;;;25.50;57.13;99927.53;5117792;28;20126;-69
2023/08/21 04:59:38;;;;;;;15.48;7.70;;;;;;;25.66;56.94;99923.13;5117803;28;20035;-69
2023/08/21 05:02:03;;;;;;;15.68;7.75;;;;;;;25.77;55.64;99922.97;5117294;28;20038;-69
2023/08/21 05:04:29;;;;;;;13.90;7.00;;;;;;;25.81;54.46;99920.56;5121281;28;20118;-68
2023/08/21 05:06:54;;;;;;;13.07;6.85;;;;;;;25.87;54.62;99924.94;5121779;28;20335;-69
2023/08/21 05:09:20;;;;;;;9.27;6.78;;;;;;;26.03;54.68;99923.22;5122281;28;20548;-68
2023/08/21 05:11:45;;;;;;;12.18;7.35;;;;;;;26.18;53.68;99927.94;5122660;28;20035;-69
2023/08/21 05:14:11;;;;;;;7.85;6.43;;;;;;;26.32;53.63;99919.13;5122187;28;20065;-69
2023/08/21 05:16:36;;;;;;;9.68;7.28;;;;;;;26.47;53.33;99923.81;5121483;28;20111;-70
2023/08/21 05:19:02;;;;;;;9.30;6.50;;;;;;;26.58;53.25;99922.81;5122382;28;20220;-69
2023/08/21 05:21:27;;;;;;;9.55;7.47;;;;;;;26.54;53.38;99923.59;5121423;28;20321;-69
2023/08/21 05:23:53;;;;;;;8.25;6.53;;;;;;;26.67;52.88;99931.28;5122031;28;20039;-69
2023/08/21 05:26:19;;;;;;;10.23;6.90;;;;;;;26.70;52.65;99936.19;5122096;28;20047;-69
2023/08/21 05:28:44;;;;;;;15.32;6.90;;;;;;;26.97;52.26;99928.75;5122082;28;20091;-69
2023/08/21 05:31:10;;;;;;;8.93;6.55;;;;;;;27.18;51.96;99934.28;5121640;28;20551;-70
2023/08/21 05:33:35;;;;;;;11.00;7.60;;;;;;;27.41;51.11;99938.44;5121948;28;20061;-69
2023/08/21 05:36:01;;;;;;;9.18;6.68;;;;;;;27.48;50.09;99923.50;5122002;28;20046;-69
2023/08/21 05:38:26;;;;;;;10.65;6.88;;;;;;;27.62;49.60;99932.81;5121691;28;20035;-69
2023/08/21 05:40:52;;;;;;;12.32;7.35;;;;;;;27.85;49.53;99931.47;5121383;28;20047;-68
2023/08/21 05:43:17;;;;;;;8.85;5.90;;;;;;;28.06;49.18;99929.56;5121637;28;20036;-70
2023/08/21 05:45:42;;;;;;;8.20;6.60;;;;;;;28.05;48.24;99927.13;5121125;28;20062;-70
2023/08/21 05:48:08;;;;;;;8.27;6.13;;;;;;;28.30;48.50;99927.16;5120669;28;20031;-68
2023/08/21 05:50:36;;;;;;;9.18;6.43;;;;;;;28.47;47.58;99927.69;5120578;28;20031;-69
2023/08/21 05:53:03;;;;;;;7.05;6.00;;;;;;;28.55;45.25;99923.56;5120257;28;20040;-69
2023/08/21 05:55:28;;;;;;;8.25;5.88;;;;;;;28.61;45.44;99925.19;5120784;28;20278;-69
2023/08/21 05:57:54;;;;;;;11.77;6.40;;;;;;;28.65;44.55;99923.56;5120273;28;20036;-70
2023/08/21 06:00:19;;;;;;;8.45;6.20;;;;;;;28.47;44.96;99930.41;5121031;28;20031;-68
2023/08/21 06:02:45;;;;;;;10.60;6.70;;;;;;;28.84;44.75;99934.69;5120556;28;20036;-69
2023/08/21 06:05:10;;;;;;;8.65;5.32;;;;;;;28.88;43.83;99927.59;5120821;28;20038;-69
2023/08/21 06:07:36;;;;;;;11.05;6.10;;;;;;;29.02;43.28;99936.81;5121013;28;20050;-69
2023/08/21 06:10:01;;;;;;;8.90;6.13;;;;;;;29.30;43.39;99943.53;5121255;28;20319;-69
2023/08/21 06:12:27;;;;;;;11.50;5.13;;;;;;;29.46;42.24;99942.38;5121003;28;20337;-69
2023/08/21 06:14:52;;;;;;;10.20;6.00;;;;;;;29.55;40.92;99931.69;5120428;28;20213;-69
2023/08/21 06:17:18;;;;;;;8.00;5.63;;;;;;;29.72;40.63;99942.22;5120467;28;20289;-69
2023/08/21 06:19:43;;;;;;;10.88;5.38;;;;;;;29.86;40.73;99932.28;5121187;28;20069;-69
2023/08/21 06:22:09;;;;;;;9.68;5.47;;;;;;;30.03;40.20;99937.38;5121087;28;20283;-69
2023/08/21 06:24:34;;;;;;;14.88;6.53;;;;;;;29.98;39.63;99938.19;5121251;28;20072;-69
2023/08/21 06:27:00;;;;;;;10.32;6.07;;;;;;;30.15;40.09;99941.34;5120674;28;20434;-70
2023/08/21 06:29:25;;;;;;;6.13;5.50;;;;;;;30.32;40.04;99940.97;5120843;28;20036;-70
2023/08/21 06:31:51;;;;;;;7.32;5.43;;;;;;;30.26;39.48;99941.28;5120032;28;20322;-70
2023/08/21 06:34:16;;;;;;;8.38;5.50;;;;;;;30.37;38.92;99938.19;5120541;28;20031;-69
2023/08/21 06:36:41;;;;;;;7.80;5.85;;;;;;;30.43;39.00;99945.22;5120086;28;20042;-70
2023/08/21 06:39:07;;;;;;;8.93;5.50;;;;;;;30.46;38.81;99939.19;5119204;28;20131;-68
2023/08/21 06:41:32;;;;;;;14.18;6.25;;;;;;;30.49;38.23;99941.34;5119433;28;20048;-69
2023/08/21 06:43:58;;;;;;;15.00;6.90;;;;;;;30.56;38.19;99943.72;5120270;28;20040;-69
2023/08/21 06:46:24;;;;;;;9.35;5.53;;;;;;;30.68;37.28;99944.19;5120169;28;20265;-69
2023/08/21 06:48:50;;;;;;;7.28;5.40;;;;;;;30.86;37.48;99939.88;5120306;28;20094;-69
2023/08/21 06:51:16;;;;;;;7.97;6.45;;;;;;;31.08;37.81;99945.63;5119994;28;20106;-69
2023/08/21 06:53:41;;;;;;;9.48;5.45;;;;;;;31.08;36.91;99933.88;5120432;28;20024;-70
2023/08/21 06:56:07;;;;;;;6.93;5.30;;;;;;;31.29;36.95;99942.69;5119872;28;20100;-69
2023/08/21 06:58:33;;;;;;;5.95;5.35;;;;;;;31.44;36.51;99945.19;5120015;28;20043;-69
2023/08/21 07:01:00;;;;;;;12.35;5.57;;;;;;;31.69;35.95;99947.59;5119784;28;20228;-69
2023/08/21 07:03:25;;;;;;;6.68;4.90;;;;;;;31.68;35.93;99937.72;5119977;28;20042;-69
2023/08/21 07:05:58;;;;;;;8.02;5.47;;;;;;;31.82;35.62;99934.28;5119953;28;20263;-69
2023/08/21 07:08:24;;;;;;;6.38;5.78;;;;;;;31.85;34.79;99939.16;5119657;28;20377;-69
2023/08/21 07:10:50;;;;;;;8.98;5.20;;;;;;;31.83;35.27;99933.16;5119595;28;20051;-69
2023/08/21 07:13:15;;;;;;;9.93;5.68;;;;;;;32.06;35.39;99940.44;5119808;28;20024;-69
2023/08/21 07:15:41;;;;;;;7.50;5.72;;;;;;;32.23;34.85;99940.69;5120153;28;20028;-69
2023/08/21 07:18:07;;;;;;;8.45;5.03;;;;;;;32.26;34.99;99933.88;5119443;28;20039;-69
2023/08/21 07:20:33;;;;;;;8.50;5.25;;;;;;;32.55;35.06;99937.16;5119496;28;20125;-68
2023/08/21 07:22:58;;;;;;;8.70;5.20;;;;;;;32.74;34.14;99922.53;5119071;28;20028;-69
2023/08/21 07:25:25;;;;;;;9.65;5.38;;;;;;;32.93;33.89;99921.34;5119498;28;20321;-70
2023/08/21 07:27:52;;;;;;;14.88;6.03;;;;;;;33.11;33.90;99922.34;5119914;28;20031;-69
2023/08/21 07:30:19;;;;;;;6.40;5.03;;;;;;;33.28;33.48;99925.25;5119890;28;20023;-69
2023/08/21 07:32:44;;;;;;;5.82;5.25;;;;;;;33.33;32.59;99916.16;5119316;28;20347;-70
2023/08/21 07:35:10;;;;;;;6.28;4.90;;;;;;;33.46;31.99;99915.31;5119516;28;20031;-70
2023/08/21 07:37:36;;;;;;;9.27;4.93;;;;;;;33.54;32.18;99914.56;5119573;28;20055;-69
2023/08/21 07:40:01;;;;;;;9.13;5.07;;;;;;;33.66;32.47;99921.44;5119548;28;20024;-69
2023/08/21 07:42:27;;;;;;;7.10;5.10;;;;;;;33.76;31.37;99916.53;5118810;28;20031;-70
2023/08/21 07:44:52;;;;;;;7.07;5.03;;;;;;;33.66;31.65;99918.72;5118481;28;20039;-68
2023/08/21 07:47:18;;;;;;;5.75;4.57;;;;;;;33.83;30.84;99916.13;5118473;28;20036;-70
2023/08/21 07:49:43;;;;;;;10.90;5.40;;;;;;;33.98;31.17;99909.44;5118337;28;20032;-68
2023/08/21 07:52:09;;;;;;;6.03;4.65;;;;;;;34.16;31.51;99914.72;5118141;28;20084;-70
2023/08/21 07:54:34;;;;;;;7.38;5.30;;;;;;;34.13;30.23;99903.56;5117875;28;20044;-68
2023/08/21 07:57:00;;;;;;;7.93;4.80;;;;;;;34.32;29.67;99906.91;5117551;28;20043;-68
2023/08/21 07:59:26;;;;;;;5.97;4.60;;;;;;;34.36;29.92;99907.13;5118160;28;20043;-68
2023/08/21 08:01:51;;;;;;;8.32;4.97;;;;;;;34.50;29.51;99908.66;5117895;28;20051;-68
2023/08/21 08:04:16;;;;;;;6.38;4.50;;;;;;;34.57;29.24;99900.75;5118187;28;20338;-68
2023/08/21 08:06:42;;;;;;;7.00;4.70;;;;;;;34.68;29.08;99900.47;5118792;28;20337;-68
2023/08/21 08:09:07;;;;;;;9.10;4.70;;;;;;;34.73;29.70;99900.31;5118824;28;20047;-68
2023/08/21 08:11:33;;;;;;;7.00;4.53;;;;;;;34.86;29.61;99902.16;5118861;28;20051;-68
2023/08/21 08:13:59;;;;;;;5.75;4.47;;;;;;;34.95;28.76;99892.00;5119343;28;20050;-68
2023/08/21 08:16:24;;;;;;;7.82;4.85;;;;;;;35.05;29.08;99888.94;5118726;28;20089;-68
2023/08/21 08:18:50;;;;;;;5.57;4.60;;;;;;;35.12;29.26;99885.72;5119312;28;20374;-69
2023/08/21 08:21:16;;;;;;;6.05;4.32;;;;;;;35.03;27.55;99884.88;5118623;28;20043;-67
2023/08/21 08:23:41;;;;;;;6.25;4.45;;;;;;;35.02;28.48;99886.81;5118906;28;20043;-68
2023/08/21 08:26:08;;;;;;;6.35;4.50;;;;;;;35.20;28.29;99885.72;5118479;28;20038;-69
2023/08/21 08:28:34;;;;;;;6.63;4.40;;;;;;;35.27;28.25;99885.25;5118283;28;20051;-69
2023/08/21 08:31:00;;;;;;;4.80;4.13;;;;;;;35.26;28.65;99885.56;5118383;28;20074;-69
2023/08/21 08:33:26;;;;;;;10.60;4.50;;;;;;;35.37;28.35;99887.72;5118734;28;20027;-68
2023/08/21 08:35:51;;;;;;;4.78;4.35;;;;;;;35.48;28.05;99878.03;5118771;28;20031;-68
2023/08/21 08:38:18;;;;;;;5.00;4.47;;;;;;;35.43;27.98;99877.38;5120753;28;20342;-68
2023/08/21 08:40:45;;;;;;;6.78;4.93;;;;;;;35.50;27.12;99877.69;5122354;28;20027;-69
2023/08/21 08:43:12;;;;;;;6.25;4.75;;;;;;;35.60;27.39;99869.09;5122733;28;20035;-68
2023/08/21 08:45:38;;;;;;;6.03;4.35;;;;;;;35.70;27.98;99867.97;5122543;28;20055;-69
2023/08/21 08:48:04;;;;;;;6.25;4.60;;;;;;;35.76;27.65;99863.91;5122873;28;20640;-69
2023/08/21 08:50:32;;;;;;;8.65;5.38;;;;;;;35.85;28.16;99861.97;5123311;28;20035;-69
2023/08/21 08:52:59;;;;;;;7.65;4.38;;;;;;;35.81;27.11;99861.00;5122143;28;20031;-69
2023/08/21 08:55:25;;;;;;;6.15;4.38;;;;;;;35.87;26.45;99864.38;5122706;28;20077;-69
2023/08/21 08:57:52;;;;;;;5.50;5.00;;;;;;;35.81;26.22;99864.56;5122510;28;20315;-69
2023/08/21 09:00:17;;;;;;;5.00;4.50;;;;;;;35.85;26.16;99859.22;5122228;28;20253;-70
2023/08/21 09:02:43;;;;;;;7.93;5.35;;;;;;;35.81;27.95;99855.50;5121800;28;20032;-69
2023/08/21 09:05:10;;;;;;;6.05;4.85;;;;;;;35.77;27.54;99848.97;5122630;28;20214;-69
2023/08/21 09:07:36;;;;;;;5.20;4.70;;;;;;;35.70;27.20;99845.91;5122436;28;20055;-69
2023/08/21 09:10:02;;;;;;;5.40;4.60;;;;;;;35.73;26.92;99843.31;5122590;28;20094;-69
2023/08/21 09:12:32;;;;;;;5.80;4.80;;;;;;;35.75;27.13;99837.47;5121739;28;20353;-69
2023/08/21 09:14:58;;;;;;;8.75;4.35;;;;;;;35.67;26.67;99841.06;5120923;28;20038;-69
2023/08/21 09:17:24;;;;;;;5.53;4.55;;;;;;;35.74;27.81;99833.91;5121164;28;20047;-69
2023/08/21 09:19:49;;;;;;;5.78;4.63;;;;;;;35.79;26.94;99825.47;5121539;28;20020;-69
2023/08/21 09:22:18;;;;;;;6.32;4.60;;;;;;;35.79;25.21;99827.44;5121996;28;20043;-69
2023/08/21 09:25:00;;;;;;;5.65;4.28;;;;;;;35.72;26.28;99824.38;5121378;28;20058;-69
2023/08/21 09:27:26;;;;;;;5.22;4.70;;;;;;;35.64;25.60;99823.25;5120873;28;20051;-68
2023/08/21 09:29:51;;;;;;;9.38;4.57;;;;;;;35.45;25.74;99826.34;5121010;28;20035;-67
2023/08/21 09:32:17;;;;;;;5.05;4.47;;;;;;;35.15;26.05;99814.31;5120906;28;20218;-68
2023/08/21 09:34:42;;;;;;;5.18;4.15;;;;;;;34.98;26.57;99816.25;5121325;28;20027;-69
2023/08/21 09:37:09;;;;;;;7.25;4.70;;;;;;;34.93;26.36;99811.72;5121595;28;20233;-68
2023/08/21 09:39:36;;;;;;;6.85;4.35;;;;;;;34.97;26.14;99812.69;5121950;28;20289;-69
2023/08/21 09:42:08;;;;;;;6.55;4.28;;;;;;;34.97;26.42;99807.19;5121449;28;20036;-68
2023/08/21 09:44:42;;;;;;;4.97;4.53;;;;;;;34.94;26.03;99796.81;5121756;28;20066;-69
2023/08/21 09:47:09;;;;;;;8.82;4.38;;;;;;;34.88;25.64;99798.94;5121892;28;20118;-69
2023/08/21 09:49:36;;;;;;;6.55;4.50;;;;;;;34.83;25.83;99793.59;5120473;28;20048;-68
2023/08/21 09:52:05;;;;;;;4.90;4.22;;;;;;;34.84;25.67;99791.66;5121573;28;20043;-69
2023/08/21 09:54:31;;;;;;;7.18;4.40;;;;;;;34.92;25.51;99801.84;5120900;28;20352;-70
2023/08/21 09:57:01;;;;;;;6.78;4.32;;;;;;;34.99;25.71;99784.84;5120698;28;20048;-70
2023/08/21 09:59:27;;;;;;;4.60;3.78;;;;;;;35.05;24.20;99783.56;5121549;28;20031;-68
2023/08/21 10:01:52;;;;;;;4.25;3.53;;;;;;;35.15;23.22;99788.75;5121141;28;20058;-69
2023/08/21 10:04:22;;;;;;;3.95;3.53;;;;;;;35.21;23.66;99776.44;5121370;28;20031;-70
2023/08/21 10:06:48;;;;;;;5.57;3.60;;;;;;;35.40;23.63;99779.72;5121184;28;20056;-69
2023/08/21 10:09:15;;;;;;;6.68;3.63;;;;;;;35.55;23.05;99778.38;5121386;28;20229;-69
2023/08/21 10:11:42;;;;;;;5.35;3.90;;;;;;;35.68;21.83;99780.13;5120178;28;20237;-69
2023/08/21 10:14:07;;;;;;;4.03;3.58;;;;;;;35.77;23.01;99780.13;5120301;28;20248;-68
2023/08/21 10:16:33;;;;;;;4.22;3.45;;;;;;;35.63;22.73;99772.06;5119586;28;20071;-70
2023/08/21 10:19:05;;;;;;;6.55;4.45;;;;;;;35.28;23.13;99776.75;5119961;28;20032;-69
2023/08/21 10:21:36;;;;;;;4.20;3.80;;;;;;;35.36;23.79;99775.16;5120604;28;20047;-69
2023/08/21 10:24:02;;;;;;;6.47;4.63;;;;;;;35.51;24.81;99764.47;5102822;28;20229;-69
2023/08/21 10:26:27;;;;;;;5.38;4.00;;;;;;;35.73;23.95;99768.13;5120584;28;20111;-70
2023/08/21 10:29:02;;;;;;;4.03;3.72;;;;;;;35.72;23.88;99766.50;5120446;28;20027;-69
2023/08/21 10:31:32;;;;;;;5.25;3.97;;;;;;;35.75;24.62;99760.34;5120840;28;20044;-69
2023/08/21 10:33:59;;;;;;;7.38;4.03;;;;;;;35.79;24.08;99761.31;5120953;28;20051;-68
2023/08/21 10:36:42;;;;;;;4.43;4.03;;;;;;;35.75;23.65;99766.66;5120665;28;20043;-68
2023/08/21 10:39:19;;;;;;;7.90;3.75;;;;;;;35.54;24.74;99753.94;5119944;28;20074;-67
2023/08/21 10:41:55;;;;;;;5.30;3.67;;;;;;;35.31;24.84;99756.81;5119459;28;20053;-69
2023/08/21 10:44:48;;;;;;;7.97;4.32;;;;;;;35.20;24.59;99759.09;5119497;28;20070;-69
2023/08/21 10:47:23;;;;;;;4.45;4.03;;;;;;;35.13;24.47;99757.97;5113980;28;20085;-69
2023/08/21 10:49:52;;;;;;;5.28;4.78;;;;;;;35.15;24.58;99755.72;5120575;28;20288;-70
2023/08/21 10:52:22;;;;;;;5.03;3.75;;;;;;;35.25;24.34;99751.81;5119486;28;20096;-70
2023/08/21 10:54:51;;;;;;;4.53;3.97;;;;;;;35.35;23.97;99746.00;5119721;28;20028;-69
2023/08/21 10:57:17;;;;;;;11.20;4.35;;;;;;;35.38;24.07;99735.19;5120057;28;20038;-69
2023/08/21 11:00:11;;;;;;;4.25;3.85;;;;;;;35.45;24.24;99746.50;5120022;28;20036;-70
2023/08/21 11:02:38;;;;;;;4.35;4.00;;;;;;;35.37;24.04;99752.81;5117438;28;20560;-70
2023/08/21 11:05:04;;;;;;;8.27;3.95;;;;;;;35.27;23.89;99752.31;5119483;28;20236;-69
2023/08/21 11:07:36;;;;;;;5.45;3.75;;;;;;;35.18;24.11;99752.31;5120040;28;20084;-70
2023/08/21 11:10:02;;;;;;;5.22;3.75;;;;;;;35.12;24.56;99754.41;5120298;28;20026;-70
2023/08/21 11:12:27;;;;;;;5.63;4.35;;;;;;;34.99;23.55;99744.41;5119577;28;20058;-68
2023/08/21 11:14:53;;;;;;;7.07;4.20;;;;;;;34.95;24.10;99754.44;5120066;28;20305;-68
2023/08/21 11:17:18;;;;;;;4.32;3.92;;;;;;;34.88;24.23;99746.66;5120262;28;20259;-68
2023/08/21 11:19:45;;;;;;;4.80;3.67;;;;;;;34.87;24.03;99739.53;5119577;28;20301;-70
2023/08/21 11:22:11;;;;;;;9.73;4.47;;;;;;;34.84;24.69;99742.94;5118839;28;20043;-68
2023/08/21 11:24:36;;;;;;;10.75;4.75;;;;;;;34.85;24.52;99743.75;5118955;28;20066;-67
2023/08/21 11:27:04;;;;;;;7.63;4.18;;;;;;;34.83;24.26;99741.31;5119265;28;20032;-68
2023/08/21 11:29:36;;;;;;;9.10;4.47;;;;;;;34.84;23.81;99739.38;5120069;28;20032;-67